Time;durP1;ratioP1;P1;durP2;ratioP2;P2;SDS_P1;SDS_P2;PMS_P1;PMS_P2;Temp;Humidity;BMP_temperature;BMP_pressure;BME280_temperature;BME280_humidity;BME280_pressure;Samples;Min_cycle;Max_cycle;Signal;HPM_P1;HPM_P2
2022/08/27 00:01:24;;;;;;;10.05;3.72;;;15.50;99.90;;;;;;5012633;28;20049;-72
2022/08/27 00:03:52;;;;;;;7.70;3.53;;;15.70;99.90;;;;;;5012207;28;20038;-72
2022/08/27 00:06:18;;;;;;;9.07;3.80;;;15.50;99.90;;;;;;5013477;28;20045;-73
2022/08/27 00:08:45;;;;;;;10.15;3.78;;;15.50;99.90;;;;;;5013702;28;20042;-73
2022/08/27 00:11:11;;;;;;;8.82;4.32;;;15.50;99.90;;;;;;5012467;28;20532;-73
2022/08/27 00:13:38;;;;;;;10.07;4.18;;;15.60;99.90;;;;;;5012113;28;20179;-74
2022/08/27 00:16:05;;;;;;;8.73;4.18;;;15.40;99.90;;;;;;5013361;28;20406;-72
2022/08/27 00:18:33;;;;;;;9.70;4.22;;;15.60;99.90;;;;;;5011932;28;20046;-74
2022/08/27 00:20:59;;;;;;;7.85;4.45;;;15.60;99.90;;;;;;5012105;28;20670;-73
2022/08/27 00:23:25;;;;;;;8.35;3.85;;;15.30;99.90;;;;;;4995720;28;20077;-72
2022/08/27 00:25:51;;;;;;;7.35;3.80;;;15.30;99.90;;;;;;4995348;28;20038;-73
2022/08/27 00:28:16;;;;;;;9.05;4.68;;;15.50;99.90;;;;;;5011510;28;20088;-73
2022/08/27 00:30:42;;;;;;;6.55;3.83;;;15.50;99.90;;;;;;5012866;28;20500;-73
2022/08/27 00:33:08;;;;;;;7.65;4.40;;;15.40;99.90;;;;;;5012060;28;20127;-73
2022/08/27 00:35:33;;;;;;;6.85;4.32;;;15.50;99.90;;;;;;5013277;28;20381;-73
2022/08/27 00:37:59;;;;;;;9.77;4.40;;;15.40;99.90;;;;;;5011790;28;20042;-73
2022/08/27 00:40:26;;;;;;;7.72;4.00;;;15.30;99.90;;;;;;5011809;28;20508;-73
2022/08/27 00:42:52;;;;;;;8.15;4.40;;;15.60;99.90;;;;;;5011466;28;20058;-72
2022/08/27 00:45:20;;;;;;;10.50;4.45;;;16.10;99.90;;;;;;5012473;28;20042;-72
2022/08/27 00:47:53;;;;;;;5.45;3.90;;;15.30;99.90;;;;;;5012763;28;20444;-73
2022/08/27 00:50:32;;;;;;;9.25;3.72;;;15.30;99.90;;;;;;5012821;28;20492;-74
2022/08/27 00:53:05;;;;;;;6.90;4.13;;;15.40;99.90;;;;;;5011512;28;20038;-73
2022/08/27 00:55:43;;;;;;;9.25;4.53;;;15.40;99.90;;;;;;5011255;28;20045;-73
2022/08/27 00:58:18;;;;;;;9.52;3.97;;;15.30;99.90;;;;;;5012820;28;20407;-73
2022/08/27 01:00:45;;;;;;;6.63;3.67;;;15.20;99.90;;;;;;5011363;28;20037;-73
2022/08/27 01:03:11;;;;;;;7.40;4.15;;;15.40;99.90;;;;;;5011249;28;20458;-73
2022/08/27 01:05:38;;;;;;;8.52;4.10;;;15.70;99.90;;;;;;5010837;28;20515;-72
2022/08/27 01:08:11;;;;;;;6.93;4.43;;;15.20;99.90;;;;;;5010831;28;20038;-70
2022/08/27 01:10:38;;;;;;;10.57;5.43;;;15.50;99.90;;;;;;5012552;28;20515;-72
2022/08/27 01:13:10;;;;;;;7.15;3.90;;;16.50;99.90;;;;;;5011274;28;20049;-74
2022/08/27 01:15:36;;;;;;;7.03;3.95;;;15.30;99.90;;;;;;5012637;28;20037;-73
2022/08/27 01:18:04;;;;;;;8.85;4.82;;;15.40;99.90;;;;;;5010799;28;20130;-73
2022/08/27 01:20:40;;;;;;;8.75;4.15;;;15.50;99.90;;;;;;5011051;28;20057;-72
2022/08/27 01:23:42;;;;;;;6.32;4.55;;;15.40;99.90;;;;;;4994522;28;20046;-73
2022/08/27 01:26:11;;;;;;;6.93;4.32;;;15.30;99.90;;;;;;5010812;28;20095;-73
2022/08/27 01:28:37;;;;;;;10.43;4.93;;;15.40;99.90;;;;;;5011984;28;20404;-73
2022/08/27 01:31:06;;;;;;;11.52;4.72;;;16.40;99.90;;;;;;5011109;28;20044;-73
2022/08/27 01:33:32;;;;;;;8.07;4.93;;;15.20;99.90;;;;;;5012135;28;20037;-72
2022/08/27 01:35:58;;;;;;;10.05;5.40;;;15.40;99.90;;;;;;5011916;28;20041;-73
2022/08/27 01:38:23;;;;;;;10.80;6.20;;;15.30;99.90;;;;;;5010769;28;20034;-74
2022/08/27 01:40:49;;;;;;;11.82;6.07;;;15.00;99.90;;;;;;5010801;28;20040;-73
2022/08/27 01:43:15;;;;;;;11.27;5.80;;;15.10;99.90;;;;;;5010650;28;20075;-73
2022/08/27 01:45:47;;;;;;;6.53;4.93;;;15.00;99.90;;;;;;5010423;28;20559;-73
2022/08/27 01:48:13;;;;;;;9.75;4.22;;;15.00;99.90;;;;;;5012599;28;20118;-72
2022/08/27 01:50:40;;;;;;;7.45;4.68;;;15.10;99.90;;;;;;5012400;28;20096;-72
2022/08/27 01:53:15;;;;;;;8.15;5.07;;;15.00;99.90;;;;;;5010871;28;20034;-74
2022/08/27 01:55:43;;;;;;;9.15;4.57;;;14.90;99.90;;;;;;5010300;28;20052;-73
2022/08/27 01:58:10;;;;;;;7.78;4.80;;;15.40;99.90;;;;;;5010377;28;20078;-73
2022/08/27 02:00:39;;;;;;;8.93;4.85;;;15.00;99.90;;;;;;4994201;28;20042;-73
2022/08/27 02:03:06;;;;;;;9.15;4.68;;;15.10;99.90;;;;;;5010464;28;20743;-73
2022/08/27 02:05:33;;;;;;;9.93;4.97;;;15.00;99.90;;;;;;5011509;28;20046;-73
2022/08/27 02:07:59;;;;;;;7.93;4.90;;;15.00;99.90;;;;;;4994335;28;20045;-72
2022/08/27 02:10:28;;;;;;;8.23;4.60;;;14.70;99.90;;;;;;5010783;28;20377;-73
2022/08/27 02:12:54;;;;;;;8.60;4.80;;;14.90;99.90;;;;;;5011021;28;20464;-73
2022/08/27 02:15:20;;;;;;;8.38;4.80;;;14.90;99.90;;;;;;5010877;28;20038;-72
2022/08/27 02:17:46;;;;;;;7.78;4.05;;;14.70;99.90;;;;;;5037527;22;20045;-72
2022/08/27 02:20:13;;;;;;;8.57;3.72;;;14.70;99.90;;;;;;5030213;28;20396;-71
2022/08/27 02:22:40;;;;;;;7.43;3.83;;;14.80;99.90;;;;;;5013813;28;20037;-72
2022/08/27 02:25:08;;;;;;;5.00;3.70;;;14.70;99.90;;;;;;5029827;28;20099;-72
2022/08/27 02:27:34;;;;;;;10.40;4.57;;;14.70;99.90;;;;;;5013814;28;20049;-71
2022/08/27 02:29:59;;;;;;;5.78;4.47;;;14.60;99.90;;;;;;5031415;28;20038;-71
2022/08/27 02:32:26;;;;;;;10.30;5.75;;;14.50;99.90;;;;;;5031667;28;20040;-72
2022/08/27 02:34:52;;;;;;;11.95;5.97;;;14.70;99.90;;;;;;5030184;28;20450;-72
2022/08/27 02:37:18;;;;;;;10.77;5.00;;;14.50;99.90;;;;;;5031598;28;20103;-71
2022/08/27 02:39:43;;;;;;;6.53;4.35;;;14.70;99.90;;;;;;5030143;28;20045;-72
2022/08/27 02:42:09;;;;;;;8.10;4.63;;;14.70;99.90;;;;;;5030098;28;20133;-71
2022/08/27 02:44:36;;;;;;;7.50;3.63;;;14.60;99.90;;;;;;5029642;28;20041;-72
2022/08/27 02:47:02;;;;;;;14.20;5.93;;;14.50;99.90;;;;;;5030092;28;20041;-72
2022/08/27 02:49:29;;;;;;;8.90;4.88;;;15.30;99.90;;;;;;5031346;28;20033;-72
2022/08/27 02:51:55;;;;;;;6.72;5.13;;;14.80;99.90;;;;;;5030549;28;20083;-72
2022/08/27 02:54:22;;;;;;;6.47;4.65;;;14.50;99.90;;;;;;5033314;28;20055;-72
2022/08/27 02:56:49;;;;;;;8.30;4.50;;;14.50;99.90;;;;;;5033813;28;20522;-72
2022/08/27 02:59:15;;;;;;;7.70;4.07;;;14.50;99.90;;;;;;5034816;28;20084;-72
2022/08/27 03:01:40;;;;;;;6.57;4.68;;;14.60;99.90;;;;;;5033897;28;20076;-71
2022/08/27 03:04:06;;;;;;;8.32;4.53;;;14.40;99.90;;;;;;5033238;28;20038;-72
2022/08/27 03:06:31;;;;;;;7.95;5.07;;;14.40;99.90;;;;;;5034762;28;20037;-72
2022/08/27 03:08:57;;;;;;;7.88;5.00;;;14.40;99.90;;;;;;5034665;28;20076;-72
2022/08/27 03:11:23;;;;;;;7.88;4.60;;;14.50;99.90;;;;;;5033562;28;20510;-72
2022/08/27 03:13:48;;;;;;;8.95;5.47;;;15.10;99.90;;;;;;5033045;28;20048;-72
2022/08/27 03:16:14;;;;;;;8.02;4.07;;;14.50;99.90;;;;;;5033142;28;20037;-72
2022/08/27 03:18:39;;;;;;;6.80;4.57;;;14.70;99.90;;;;;;5034432;28;20106;-71
2022/08/27 03:21:07;;;;;;;7.03;4.43;;;15.40;99.90;;;;;;5033143;28;20526;-71
2022/08/27 03:23:33;;;;;;;7.15;4.43;;;14.60;99.90;;;;;;5016799;28;20045;-72
2022/08/27 03:26:02;;;;;;;6.18;4.78;;;14.90;99.90;;;;;;5032802;28;20503;-73
2022/08/27 03:28:32;;;;;;;9.20;4.13;;;14.80;99.90;;;;;;5016457;28;20128;-72
2022/08/27 03:31:00;;;;;;;9.65;4.85;;;15.00;99.90;;;;;;5033186;28;20121;-72
2022/08/27 03:33:28;;;;;;;5.85;4.03;;;14.70;99.90;;;;;;5016536;28;20125;-72
2022/08/27 03:35:54;;;;;;;8.60;4.78;;;14.70;99.90;;;;;;5033998;28;20045;-72
2022/08/27 03:38:21;;;;;;;7.43;4.15;;;14.90;99.90;;;;;;5034098;28;20047;-72
2022/08/27 03:40:46;;;;;;;7.30;4.18;;;16.20;99.90;;;;;;5032956;28;20087;-72
2022/08/27 03:43:14;;;;;;;5.90;4.35;;;15.00;99.90;;;;;;5034325;28;20037;-72
2022/08/27 03:45:42;;;;;;;10.75;4.43;;;15.00;99.90;;;;;;5032381;28;20064;-71
2022/08/27 03:48:09;;;;;;;6.70;4.28;;;15.60;99.90;;;;;;5032683;28;20128;-72
2022/08/27 03:50:37;;;;;;;8.10;4.63;;;14.90;99.90;;;;;;5032612;28;20041;-72
2022/08/27 03:53:03;;;;;;;7.15;4.93;;;15.10;99.90;;;;;;5032597;28;20045;-72
2022/08/27 03:55:28;;;;;;;8.27;4.22;;;14.90;99.90;;;;;;5032293;28;20491;-72
2022/08/27 03:57:54;;;;;;;7.40;4.57;;;15.30;99.90;;;;;;5032434;28;20042;-72
2022/08/27 04:00:20;;;;;;;8.32;4.50;;;15.00;99.90;;;;;;5032499;28;20080;-72
2022/08/27 04:02:45;;;;;;;8.05;4.53;;;15.30;99.90;;;;;;5033701;28;20033;-72
2022/08/27 04:05:13;;;;;;;7.60;4.63;;;15.20;99.90;;;;;;5032074;28;20077;-72
2022/08/27 04:07:40;;;;;;;8.35;4.10;;;17.60;99.90;;;;;;5032221;28;20037;-71
2022/08/27 04:10:08;;;;;;;5.85;3.75;;;16.10;99.90;;;;;;5032171;28;20514;-72
2022/08/27 04:12:34;;;;;;;7.15;3.20;;;15.30;99.90;;;;;;5033727;28;20084;-72
2022/08/27 04:14:59;;;;;;;7.97;3.33;;;16.40;99.90;;;;;;5033396;28;20045;-72
2022/08/27 04:17:25;;;;;;;8.98;4.07;;;15.40;99.90;;;;;;5015412;28;20052;-71
2022/08/27 04:19:51;;;;;;;9.90;4.80;;;15.40;99.90;;;;;;5033482;28;20061;-72
2022/08/27 04:22:18;;;;;;;11.05;4.43;;;15.30;99.90;;;;;;5031939;28;20041;-72
2022/08/27 04:24:43;;;;;;;7.70;5.38;;;15.20;99.90;;;;;;5031621;28;20033;-72
2022/08/27 04:27:10;;;;;;;12.68;5.50;;;15.30;99.90;;;;;;5033378;28;20041;-72
2022/08/27 04:29:36;;;;;;;10.63;4.78;;;15.40;99.90;;;;;;5015378;28;20047;-72
2022/08/27 04:32:02;;;;;;;8.30;4.45;;;15.20;99.90;;;;;;5031899;28;20060;-72
2022/08/27 04:34:28;;;;;;;11.88;4.70;;;15.20;99.90;;;;;;5015091;28;20041;-72
2022/08/27 04:36:56;;;;;;;9.15;4.97;;;15.10;99.90;;;;;;5033041;28;20046;-72
2022/08/27 04:39:21;;;;;;;6.90;4.60;;;15.30;99.90;;;;;;5032841;28;20049;-72
2022/08/27 04:41:51;;;;;;;14.50;5.00;;;15.10;99.90;;;;;;5031915;28;20510;-72
2022/08/27 04:44:17;;;;;;;9.50;4.63;;;15.10;99.90;;;;;;5014816;28;20132;-72
2022/08/27 04:46:42;;;;;;;8.85;5.22;;;15.30;99.90;;;;;;5032895;28;20109;-71
2022/08/27 04:49:12;;;;;;;9.52;5.43;;;15.20;99.90;;;;;;5032682;28;20084;-72
2022/08/27 04:51:38;;;;;;;8.63;4.97;;;16.20;99.90;;;;;;5032651;28;20092;-72
2022/08/27 04:54:05;;;;;;;7.53;4.82;;;15.20;99.90;;;;;;5031459;28;20069;-72
2022/08/27 04:56:31;;;;;;;9.98;4.85;;;15.10;99.90;;;;;;5031749;28;20148;-72
2022/08/27 04:58:57;;;;;;;8.43;4.30;;;15.80;99.90;;;;;;5031298;28;20056;-71
2022/08/27 05:01:25;;;;;;;6.30;4.43;;;15.20;99.90;;;;;;5031520;28;20068;-71
2022/08/27 05:03:51;;;;;;;11.52;5.13;;;15.10;99.90;;;;;;5030965;28;20494;-72
2022/08/27 05:06:17;;;;;;;10.57;3.88;;;15.20;99.90;;;;;;5032482;28;20042;-73
2022/08/27 05:08:43;;;;;;;9.05;5.20;;;15.00;99.90;;;;;;5031367;28;20467;-72
2022/08/27 05:11:13;;;;;;;10.30;4.15;;;15.20;99.90;;;;;;5032181;28;20048;-71
2022/08/27 05:13:40;;;;;;;6.05;3.40;;;15.10;99.90;;;;;;5014895;28;20072;-72
2022/08/27 05:16:12;;;;;;;9.60;3.58;;;15.30;99.90;;;;;;5031923;28;20034;-71
2022/08/27 05:18:39;;;;;;;7.28;3.55;;;15.10;99.90;;;;;;5032121;28;20039;-71
2022/08/27 05:21:05;;;;;;;7.97;3.67;;;15.30;99.90;;;;;;5032506;28;20048;-71
2022/08/27 05:23:32;;;;;;;6.30;3.80;;;15.20;99.90;;;;;;5031014;28;20033;-71
2022/08/27 05:25:59;;;;;;;8.80;4.43;;;15.30;99.90;;;;;;5030729;28;20120;-71
2022/08/27 05:28:26;;;;;;;6.03;3.90;;;15.40;99.90;;;;;;5032156;28;20442;-71
2022/08/27 05:30:54;;;;;;;9.45;3.80;;;15.60;99.90;;;;;;5032190;28;20037;-72
2022/08/27 05:33:23;;;;;;;7.22;3.72;;;15.40;99.90;;;;;;5030691;28;20039;-72
2022/08/27 05:35:54;;;;;;;6.75;2.78;;;15.60;99.90;;;;;;5030525;28;20124;-71
2022/08/27 05:38:21;;;;;;;7.22;2.90;;;15.60;99.90;;;;;;5030610;28;20486;-72
2022/08/27 05:40:47;;;;;;;11.55;2.97;;;15.60;99.90;;;;;;5014259;28;20051;-71
2022/08/27 05:43:14;;;;;;;6.63;2.83;;;15.90;99.90;;;;;;5031961;28;20037;-72
2022/08/27 05:45:42;;;;;;;6.40;2.95;;;15.60;99.90;;;;;;5030212;28;20085;-72
2022/08/27 05:48:10;;;;;;;6.07;2.83;;;16.00;99.90;;;;;;5030487;28;20040;-72
2022/08/27 05:50:38;;;;;;;9.18;3.63;;;17.10;99.90;;;;;;5032021;28;20050;-71
2022/08/27 05:53:03;;;;;;;6.57;3.78;;;16.10;99.90;;;;;;5032005;28;20033;-72
2022/08/27 05:55:29;;;;;;;8.30;3.83;;;15.90;99.90;;;;;;5031947;28;20056;-72
2022/08/27 05:57:54;;;;;;;5.25;3.17;;;16.10;99.90;;;;;;5030743;28;20049;-72
2022/08/27 06:03:04;;;;;;;6.35;2.92;;;16.20;99.90;;;;;;5027839;28;20048;-71
2022/08/27 06:05:30;;;;;;;8.57;3.75;;;16.40;99.90;;;;;;5029634;28;20042;-72
2022/08/27 06:07:56;;;;;;;7.30;2.92;;;16.40;99.90;;;;;;5013742;28;20045;-72
2022/08/27 06:10:22;;;;;;;10.75;3.22;;;17.50;99.90;;;;;;5010814;28;20037;-72
2022/08/27 06:12:48;;;;;;;9.63;3.50;;;16.50;99.90;;;;;;5031108;28;20029;-72
2022/08/27 06:15:13;;;;;;;10.68;3.35;;;16.30;99.90;;;;;;5030949;28;20034;-72
2022/08/27 06:17:39;;;;;;;8.75;3.58;;;16.60;99.90;;;;;;5031018;28;20542;-71
2022/08/27 06:20:05;;;;;;;6.85;3.42;;;16.70;99.90;;;;;;5029794;28;20454;-71
2022/08/27 06:22:30;;;;;;;6.88;2.60;;;16.50;99.90;;;;;;5030991;28;20403;-71
2022/08/27 06:24:56;;;;;;;8.43;3.05;;;16.70;99.90;;;;;;5030415;28;20537;-72
2022/08/27 06:27:21;;;;;;;4.38;2.35;;;18.20;99.90;;;;;;5030967;28;20077;-71
2022/08/27 06:29:47;;;;;;;10.48;2.47;;;16.70;99.90;;;;;;5034182;28;20038;-71
2022/08/27 06:32:13;;;;;;;6.22;2.60;;;16.90;99.90;;;;;;5034165;28;20414;-72
2022/08/27 06:34:39;;;;;;;3.75;1.80;;;16.90;99.90;;;;;;5033753;28;20133;-72
2022/08/27 06:37:06;;;;;;;11.45;2.28;;;17.00;99.90;;;;;;5035323;28;20120;-72
2022/08/27 06:39:31;;;;;;;5.35;2.30;;;16.90;99.90;;;;;;5034321;28;20179;-71
2022/08/27 06:41:58;;;;;;;5.03;1.90;;;17.10;99.90;;;;;;5030791;28;20087;-71
2022/08/27 06:44:23;;;;;;;6.90;2.05;;;17.20;99.90;;;;;;5033007;28;20116;-71
2022/08/27 06:46:50;;;;;;;6.03;2.03;;;17.30;99.90;;;;;;5038304;28;20558;-71
2022/08/27 06:49:16;;;;;;;7.25;2.17;;;17.00;99.90;;;;;;5036380;28;20569;-71
2022/08/27 06:51:45;;;;;;;7.22;2.53;;;17.10;99.90;;;;;;5044544;28;20040;-71
2022/08/27 06:54:12;;;;;;;5.22;2.00;;;17.30;99.90;;;;;;5044515;28;20461;-71
2022/08/27 06:56:39;;;;;;;6.90;2.30;;;17.30;99.90;;;;;;5031512;28;20045;-72
2022/08/27 06:59:08;;;;;;;8.88;2.25;;;17.30;99.90;;;;;;5025382;28;20099;-71
2022/08/27 07:01:37;;;;;;;9.73;2.95;;;17.20;99.90;;;;;;5045146;28;20055;-71
2022/08/27 07:04:06;;;;;;;5.25;2.50;;;18.00;99.90;;;;;;5039327;28;20265;-71
2022/08/27 07:06:33;;;;;;;7.70;2.50;;;17.20;99.90;;;;;;5036757;28;20033;-72
2022/08/27 07:08:59;;;;;;;8.05;2.45;;;17.30;99.90;;;;;;5042447;28;20034;-71
2022/08/27 07:11:26;;;;;;;10.80;2.10;;;17.40;99.90;;;;;;5038000;28;20042;-71
2022/08/27 07:13:51;;;;;;;9.32;2.20;;;18.80;99.90;;;;;;5017315;28;20537;-71
2022/08/27 07:16:24;;;;;;;4.93;1.73;;;18.90;99.90;;;;;;5038185;28;20033;-72
2022/08/27 07:18:51;;;;;;;4.65;1.50;;;17.50;99.90;;;;;;5046493;28;20042;-69
2022/08/27 07:21:18;;;;;;;7.07;1.83;;;17.70;99.90;;;;;;5037624;28;20037;-71
2022/08/27 07:23:45;;;;;;;6.57;1.73;;;17.80;99.90;;;;;;5046273;28;20115;-71
2022/08/27 07:26:13;;;;;;;5.55;1.50;;;18.40;99.90;;;;;;5039525;28;20530;-73
2022/08/27 07:28:41;;;;;;;5.78;1.60;;;17.70;99.90;;;;;;5040170;28;20087;-71
2022/08/27 07:31:08;;;;;;;9.13;2.33;;;18.60;99.90;;;;;;5033211;28;20037;-71
2022/08/27 07:33:35;;;;;;;5.45;1.70;;;17.90;99.90;;;;;;5033568;28;20092;-71
2022/08/27 07:36:02;;;;;;;5.38;1.70;;;19.20;99.90;;;;;;5032830;28;20072;-71
2022/08/27 07:38:28;;;;;;;5.40;1.77;;;18.00;99.90;;;;;;5033720;28;20037;-72
2022/08/27 07:40:54;;;;;;;7.15;1.63;;;18.20;99.90;;;;;;5016317;28;20059;-71
2022/08/27 07:46:04;;;;;;;4.20;1.75;;;18.60;99.90;;;;;;5033247;28;20049;-71
2022/08/27 07:48:32;;;;;;;6.95;1.48;;;18.70;99.90;;;;;;5012823;28;20049;-71
2022/08/27 07:50:58;;;;;;;4.65;1.45;;;18.50;99.90;;;;;;5014059;28;20046;-70
2022/08/27 07:53:24;;;;;;;6.40;1.52;;;18.70;99.90;;;;;;5013047;28;20069;-70
2022/08/27 07:55:50;;;;;;;9.80;2.78;;;18.50;99.90;;;;;;5028423;28;20376;-70
2022/08/27 07:58:15;;;;;;;4.85;1.25;;;18.50;99.90;;;;;;5014443;28;20044;-71
2022/08/27 08:00:43;;;;;;;6.00;1.60;;;18.60;99.90;;;;;;5015328;28;20167;-72
2022/08/27 08:03:10;;;;;;;6.35;1.38;;;18.60;99.90;;;;;;5032635;28;20049;-71
2022/08/27 08:05:39;;;;;;;3.78;1.10;;;18.50;99.90;;;;;;5032923;28;20042;-72
2022/08/27 08:08:06;;;;;;;2.92;1.17;;;18.30;99.90;;;;;;5013141;28;20064;-71
2022/08/27 08:10:33;;;;;;;5.05;1.58;;;18.60;99.90;;;;;;5033411;28;20037;-71
2022/08/27 08:12:59;;;;;;;5.78;1.20;;;18.40;99.90;;;;;;5033390;28;20041;-71
2022/08/27 08:15:24;;;;;;;5.63;1.33;;;19.50;99.90;;;;;;5031021;28;20049;-72
2022/08/27 08:17:50;;;;;;;3.90;0.98;;;;;;;;;;5055582;23;20029;-74
2022/08/27 08:20:16;;;;;;;3.65;1.00;;;18.40;99.90;;;;;;5029850;28;20041;-73
2022/08/27 08:22:42;;;;;;;6.18;2.15;;;18.60;99.90;;;;;;5031188;28;20041;-73
2022/08/27 08:25:08;;;;;;;8.10;1.63;;;18.70;99.90;;;;;;5030565;28;20491;-73
2022/08/27 08:27:34;;;;;;;5.93;1.30;;;18.60;99.90;;;;;;5014735;28;20049;-73
2022/08/27 08:30:00;;;;;;;9.07;1.90;;;18.60;99.90;;;;;;5031254;28;20033;-74
2022/08/27 08:32:25;;;;;;;4.28;1.20;;;19.30;99.90;;;;;;5030829;28;20405;-73
2022/08/27 08:34:52;;;;;;;3.42;1.10;;;18.70;99.90;;;;;;5031105;28;20030;-74
2022/08/27 08:37:17;;;;;;;5.55;0.98;;;18.90;99.90;;;;;;5014699;28;20400;-74
2022/08/27 08:39:43;;;;;;;12.27;2.55;;;19.70;99.90;;;;;;5032934;28;20037;-73
2022/08/27 08:42:38;;;;;;;6.43;1.23;;;20.40;99.90;;;;;;5032896;28;20034;-74
2022/08/27 08:45:05;;;;;;;5.30;0.90;;;19.70;99.90;;;;;;5032493;28;20426;-74
2022/08/27 08:48:00;;;;;;;2.83;1.05;;;19.30;99.90;;;;;;5032462;28;20108;-74
2022/08/27 08:50:37;;;;;;;6.40;1.50;;;19.10;99.90;;;;;;5018587;28;20045;-74
2022/08/27 08:53:29;;;;;;;4.55;1.02;;;19.10;99.90;;;;;;5031193;28;20097;-74
2022/08/27 08:56:00;;;;;;;5.78;1.20;;;19.70;99.90;;;;;;5031142;28;20415;-73
2022/08/27 08:58:40;;;;;;;4.55;1.25;;;21.20;99.90;;;;;;5031051;28;20045;-73
2022/08/27 09:01:08;;;;;;;3.58;1.15;;;19.80;99.90;;;;;;5032505;28;20048;-71
2022/08/27 09:03:39;;;;;;;4.70;1.10;;;19.70;99.90;;;;;;5029666;28;20049;-73
2022/08/27 09:06:09;;;;;;;7.72;1.58;;;19.50;99.90;;;;;;5013757;28;20045;-73
2022/08/27 09:08:44;;;;;;;8.80;1.63;;;19.30;99.90;;;;;;5011784;28;20049;-73
2022/08/27 09:11:32;;;;;;;4.15;0.85;;;19.50;99.90;;;;;;5031841;28;20403;-73
2022/08/27 09:14:02;;;;;;;6.97;1.52;;;19.40;99.90;;;;;;5024321;28;20407;-73
2022/08/27 09:16:28;;;;;;;4.28;1.17;;;19.60;99.90;;;;;;5010896;28;20558;-74
2022/08/27 09:18:54;;;;;;;7.57;1.73;;;19.60;99.90;;;;;;5012144;28;20050;-73
2022/08/27 09:21:37;;;;;;;4.82;1.25;;;19.60;99.90;;;;;;5010919;28;20053;-73
2022/08/27 09:24:03;;;;;;;4.78;1.63;;;19.60;99.90;;;;;;5010886;28;20038;-73
2022/08/27 09:26:31;;;;;;;7.20;1.40;;;19.70;99.90;;;;;;5012337;28;20037;-73
2022/08/27 09:29:14;;;;;;;7.15;1.60;;;20.10;99.90;;;;;;5010895;28;20121;-73
2022/08/27 09:31:41;;;;;;;;;;;20.30;99.90;;;;;;5012681;28;20046;-73
2022/08/27 09:34:07;;;;;;;6.00;1.33;;;20.80;99.90;;;;;;5011993;28;20012;-73
2022/08/27 09:36:33;;;;;;;6.43;1.50;;;21.00;99.90;;;;;;4994448;28;20077;-73
2022/08/27 09:39:03;;;;;;;9.50;1.15;;;21.10;99.90;;;;;;5011941;28;20124;-72
2022/08/27 09:41:37;;;;;;;6.15;1.52;;;21.50;99.90;;;;;;4994439;28;20045;-73
2022/08/27 09:44:10;;;;;;;6.85;1.52;;;22.30;99.90;;;;;;5010614;28;20045;-73
2022/08/27 09:46:36;;;;;;;8.57;1.30;;;21.10;99.90;;;;;;5010678;28;20508;-73
2022/08/27 09:49:15;;;;;;;7.03;1.20;;;22.00;99.90;;;;;;5010908;28;20048;-73
2022/08/27 09:51:43;;;;;;;10.43;1.98;;;21.90;99.90;;;;;;5010352;28;20033;-73
2022/08/27 09:54:10;;;;;;;2.95;1.13;;;20.20;99.90;;;;;;4994111;28;20042;-73
2022/08/27 09:56:37;;;;;;;5.82;1.30;;;20.10;99.90;;;;;;4994667;28;20053;-72
2022/08/27 09:59:11;;;;;;;4.50;0.95;;;20.50;99.90;;;;;;5011761;28;20046;-73
2022/08/27 10:01:53;;;;;;;5.50;1.55;;;20.20;99.90;;;;;;5014502;28;20051;-73
2022/08/27 10:04:32;;;;;;;4.78;1.00;;;20.00;99.90;;;;;;5030020;28;20041;-73
2022/08/27 10:06:58;;;;;;;11.75;1.70;;;19.80;99.90;;;;;;5013869;28;20045;-73
2022/08/27 10:09:37;;;;;;;3.70;0.95;;;19.70;99.90;;;;;;5030118;28;20080;-73
2022/08/27 10:12:25;;;;;;;5.90;0.90;;;20.70;99.90;;;;;;5030063;28;20037;-72
2022/08/27 10:14:56;;;;;;;3.10;1.25;;;20.00;99.90;;;;;;5029733;28;20037;-73
2022/08/27 10:17:25;;;;;;;9.95;1.30;;;19.90;99.90;;;;;;5013861;28;20360;-73
2022/08/27 10:20:23;;;;;;;5.75;1.15;;;20.50;99.90;;;;;;5029972;28;20041;-73
2022/08/27 10:23:04;;;;;;;7.18;1.17;;;20.70;99.90;;;;;;5031352;28;20056;-73
2022/08/27 10:25:42;;;;;;;3.13;1.00;;;21.20;99.90;;;;;;5029703;28;20133;-73
2022/08/27 10:28:28;;;;;;;7.13;1.20;;;20.70;99.90;;;;;;5013416;28;20081;-73
2022/08/27 10:31:12;;;;;;;6.85;1.30;;;20.90;99.90;;;;;;5019304;28;20050;-73
2022/08/27 10:33:49;;;;;;;11.05;1.35;;;20.60;99.90;;;;;;5030110;28;20095;-74
2022/08/27 10:36:43;;;;;;;8.38;1.20;;;20.30;99.90;;;;;;5029858;28;20091;-74
2022/08/27 10:39:26;;;;;;;4.78;0.85;;;20.70;99.90;;;;;;5024886;28;20507;-74
2022/08/27 10:42:17;;;;;;;7.38;1.20;;;20.20;99.90;;;;;;5029897;28;20042;-74
2022/08/27 10:44:54;;;;;;;8.80;1.10;;;20.50;99.90;;;;;;5029695;28;20496;-74
2022/08/27 10:47:46;;;;;;;5.28;0.90;;;20.70;99.90;;;;;;5029943;28;20041;-74
2022/08/27 10:50:27;;;;;;;5.53;1.00;;;20.70;99.90;;;;;;5026032;28;20107;-74
2022/08/27 10:52:55;;;;;;;6.47;1.80;;;20.90;99.90;;;;;;5013583;28;20041;-74
2022/08/27 10:55:25;;;;;;;4.53;1.17;;;21.80;99.90;;;;;;5029357;28;20052;-74
2022/08/27 10:57:51;;;;;;;4.40;1.02;;;21.30;99.90;;;;;;5029736;28;20041;-74
2022/08/27 11:00:19;;;;;;;4.32;0.90;;;21.20;99.90;;;;;;5029244;28;20041;-74
2022/08/27 11:03:05;;;;;;;3.88;0.80;;;21.10;99.90;;;;;;5030377;28;20175;-75
2022/08/27 11:05:37;;;;;;;3.70;1.15;;;21.60;99.90;;;;;;5030678;28;20046;-74
2022/08/27 11:08:10;;;;;;;7.68;1.00;;;21.10;99.90;;;;;;5013137;28;20045;-74
2022/08/27 11:10:39;;;;;;;7.63;0.98;;;21.10;99.90;;;;;;5013520;28;20045;-75
2022/08/27 11:13:11;;;;;;;6.28;0.80;;;20.90;99.90;;;;;;5013952;28;20080;-74
2022/08/27 11:15:42;;;;;;;3.70;0.90;;;21.50;99.90;;;;;;5016294;28;20050;-74
2022/08/27 11:18:36;;;;;;;5.40;1.77;;;22.10;99.90;;;;;;5034540;28;20037;-74
2022/08/27 11:21:13;;;;;;;3.78;1.10;;;21.10;99.60;;;;;;5033766;28;20415;-74
2022/08/27 11:23:44;;;;;;;5.88;1.10;;;21.30;99.90;;;;;;5033884;28;20037;-74
2022/08/27 11:26:11;;;;;;;5.18;1.23;;;22.10;99.90;;;;;;5033166;28;20033;-74
2022/08/27 11:28:59;;;;;;;3.97;1.10;;;22.60;99.30;;;;;;5032880;28;20572;-74
2022/08/27 11:31:33;;;;;;;5.25;1.00;;;22.10;99.80;;;;;;5033163;28;20044;-74
2022/08/27 11:34:06;;;;;;;3.85;0.95;;;22.10;99.70;;;;;;5033893;28;20091;-74
2022/08/27 11:37:09;;;;;;;8.45;0.93;;;22.20;99.90;;;;;;5034233;28;20118;-74
2022/08/27 11:39:56;;;;;;;12.65;2.03;;;20.90;99.90;;;;;;5034028;28;20045;-74
2022/08/27 11:42:24;;;;;;;4.50;1.00;;;20.70;99.90;;;;;;5034018;28;20507;-74
2022/08/27 11:44:57;;;;;;;3.72;0.95;;;20.90;99.90;;;;;;5032813;28;20046;-74
2022/08/27 11:47:26;;;;;;;;;;;21.20;99.90;;;;;;5033228;28;20030;-74
2022/08/27 11:49:58;;;;;;;5.93;0.90;;;21.40;99.90;;;;;;5033783;28;20054;-73
2022/08/27 11:52:31;;;;;;;4.78;1.35;;;21.30;99.80;;;;;;5032323;28;20440;-73
2022/08/27 11:55:25;;;;;;;6.32;0.95;;;20.60;99.90;;;;;;5032051;28;20050;-73
2022/08/27 11:58:20;;;;;;;5.75;1.17;;;20.70;99.90;;;;;;5015759;28;20046;-73
2022/08/27 12:00:47;;;;;;;5.75;0.80;;;20.60;99.90;;;;;;5015784;28;20041;-73
2022/08/27 12:03:18;;;;;;;5.40;1.10;;;21.20;99.90;;;;;;5032514;28;20041;-73
2022/08/27 12:05:53;;;;;;;6.40;1.58;;;21.60;99.90;;;;;;5033289;28;20408;-73
2022/08/27 12:08:21;;;;;;;4.95;0.90;;;21.70;99.30;;;;;;5032063;28;20132;-73
2022/08/27 12:11:26;;;;;;;10.30;1.38;;;21.60;99.90;;;;;;5033261;28;20044;-73
2022/08/27 12:14:07;;;;;;;4.25;0.90;;;21.60;99.90;;;;;;5029554;28;20231;-72
2022/08/27 12:16:50;;;;;;;10.07;1.40;;;21.60;99.90;;;;;;5015412;28;20037;-73
2022/08/27 12:19:15;;;;;;;4.57;0.93;;;21.60;99.30;;;;;;5031692;28;20380;-73
2022/08/27 12:21:46;;;;;;;5.25;0.85;;;22.00;99.40;;;;;;5031949;28;20068;-73
2022/08/27 12:24:36;;;;;;;2.72;0.82;;;22.40;99.30;;;;;;5030569;28;20041;-74
2022/08/27 12:27:19;;;;;;;5.70;0.82;;;22.00;98.40;;;;;;5031733;28;20084;-73
2022/08/27 12:29:59;;;;;;;5.72;0.85;;;21.50;98.90;;;;;;5033054;28;20514;-72
2022/08/27 12:32:36;;;;;;;5.57;0.70;;;21.50;99.00;;;;;;5031774;28;20043;-72
2022/08/27 12:35:13;;;;;;;5.05;0.77;;;21.20;98.70;;;;;;5032736;28;20038;-72
2022/08/27 12:37:46;;;;;;;6.40;1.27;;;22.40;99.20;;;;;;5025932;28;20049;-72
2022/08/27 12:40:23;;;;;;;3.05;0.77;;;22.80;99.30;;;;;;5019903;28;20132;-72
2022/08/27 12:42:50;;;;;;;5.85;1.05;;;21.90;97.90;;;;;;5012118;28;20085;-74
2022/08/27 12:45:24;;;;;;;4.75;0.95;;;21.50;98.80;;;;;;4994918;28;20052;-73
2022/08/27 12:47:52;;;;;;;3.58;0.90;;;21.10;98.90;;;;;;5012146;28;20044;-73
2022/08/27 12:50:27;;;;;;;6.18;1.08;;;21.80;99.30;;;;;;5011617;28;20046;-72
2022/08/27 12:53:19;;;;;;;3.15;1.10;;;23.20;99.70;;;;;;5011484;28;20053;-73
2022/08/27 12:55:52;;;;;;;5.70;1.20;;;21.80;99.00;;;;;;5002392;28;20033;-72
2022/08/27 12:58:45;;;;;;;4.00;1.38;;;22.60;99.70;;;;;;5000731;28;20051;-72
2022/08/27 13:01:29;;;;;;;6.30;1.38;;;21.10;99.20;;;;;;5012792;28;20038;-72
2022/08/27 13:03:55;;;;;;;7.75;1.42;;;20.70;99.40;;;;;;5011318;28;20038;-72
2022/08/27 13:06:34;;;;;;;3.80;1.33;;;22.40;99.90;;;;;;5017236;28;20037;-73